• Join FlightAware (Why Join?)
  • Login
  • US Flag 
09:32AM EDT


 

Airport Tracker/Info


-or-


 

Live Flight TrackerFlight Track Log ✈ UAL1433 ✈ 02-Jul-2013 ✈ MNMG / MGA - KIAH

Flight Track Log - Related Links

Times and Time Zones

All times are in EDT time to prevent confusion due to time zone crossing. See the UAL1433 flight status page for this flight to view local times or setup timezone preferences in your user account.

Time Position Orientation Groundspeed Altitude Reporting Facility
EDT Latitude Longitude Course Direction KTS MPH feet Rate Location/Type
02:28PM 12.4706 -86.2916 340° North  Level FlightAware Approximate
02:29PM 12.5803 -86.3328 340° North  Level FlightAware Approximate
02:30PM 12.6899 -86.3741 340° North  Level FlightAware Approximate
02:31PM 12.7996 -86.4154 340° North  Level FlightAware Approximate
02:32PM 12.9093 -86.4567 340° North  Level FlightAware Approximate
02:33PM 13.0190 -86.4981 340° North  Level FlightAware Approximate
02:34PM 13.1286 -86.5395 340° North  Level FlightAware Approximate
02:35PM 13.2382 -86.5809 340° North  Level FlightAware Approximate
02:36PM 13.3479 -86.6224 340° North  Level FlightAware Approximate
02:37PM 13.4575 -86.6639 340° North  Level FlightAware Approximate
02:38PM 13.5672 -86.7054 340° North  Level FlightAware Approximate
02:39PM 13.6768 -86.7470 340° North  Level FlightAware Approximate
02:40PM 13.7864 -86.7886 340° North  Level FlightAware Approximate
02:41PM 13.8960 -86.8303 340° North  Level FlightAware Approximate
02:42PM 14.0056 -86.8720 340° North  Level FlightAware Approximate
02:43PM 14.1152 -86.9137 340° North  Level FlightAware Approximate
02:44PM 14.2265 -86.9560 340° North  Level FlightAware Approximate
02:45PM 14.3361 -86.9977 340° North  Level FlightAware Approximate
02:46PM 14.4458 -87.0393 340° North  Level FlightAware Approximate
02:47PM 14.5554 -87.0810 340° North  Level FlightAware Approximate
02:48PM 14.6650 -87.1228 340° North  Level FlightAware Approximate
02:49PM 14.7746 -87.1646 340° North  Level FlightAware Approximate
02:50PM 14.8842 -87.2064 340° North  Level FlightAware Approximate
02:51PM 14.9938 -87.2483 340° North  Level FlightAware Approximate
02:52PM 15.1034 -87.2902 340° North  Level FlightAware Approximate
02:53PM 15.2130 -87.3322 340° North  Level FlightAware Approximate
02:54PM 15.3226 -87.3742 340° North  Level FlightAware Approximate
02:55PM 15.4322 -87.4162 340° North  Level FlightAware Approximate
02:56PM 15.5414 -87.4591 339° North  Level FlightAware Approximate
02:57PM 15.6470 -87.5006 339° North  Level FlightAware Approximate
02:58PM 15.7526 -87.5422 339° North  Level FlightAware Approximate
02:59PM 15.8582 -87.5838 339° North  Level FlightAware Approximate
03:00PM 15.9638 -87.6254 339° North  Level FlightAware Approximate
03:01PM 16.0694 -87.6671 339° North  Level FlightAware Approximate
03:02PM 16.1749 -87.7088 339° North  Level FlightAware Approximate
03:03PM 16.2805 -87.7506 339° North  Level FlightAware Approximate
03:04PM 16.3860 -87.7924 339° North  Level FlightAware Approximate
03:05PM 16.4916 -87.8342 339° North  Level FlightAware Approximate
03:06PM 16.5971 -87.8761 339° North  Level FlightAware Approximate
03:07PM 16.7026 -87.9181 339° North  Level FlightAware Approximate
03:08PM 16.8081 -87.9601 339° North  Level FlightAware Approximate
03:09PM 16.9136 -88.0021 339° North  Level FlightAware Approximate
03:10PM 17.0191 -88.0442 339° North  Level FlightAware Approximate
03:11PM 17.1246 -88.0863 339° North  Level FlightAware Approximate
03:12PM 17.2301 -88.1285 339° North  Level FlightAware Approximate
03:13PM 17.3356 -88.1708 339° North  Level FlightAware Approximate
03:14PM 17.4410 -88.2131 339° North  Level FlightAware Approximate
03:15PM 17.5465 -88.2554 339° North  Level FlightAware Approximate
03:16PM 17.6519 -88.2978 339° North  Level FlightAware Approximate
03:17PM 17.7573 -88.3402 339° North  Level FlightAware Approximate
03:18PM 17.8628 -88.3827 339° North  Level FlightAware Approximate
03:19PM 17.9682 -88.4252 339° North  Level FlightAware Approximate
03:20PM 18.0736 -88.4678 339° North  Level FlightAware Approximate
03:21PM 18.1790 -88.5104 339° North  Level FlightAware Approximate
03:22PM 18.2844 -88.5531 339° North  Level FlightAware Approximate
03:23PM 18.3897 -88.5958 339° North  Level FlightAware Approximate
03:24PM 18.4940 -88.6413 339° North  Level FlightAware Approximate
03:25PM 18.5993 -88.6842 339° North  Level FlightAware Approximate
03:26PM 18.7047 -88.7272 339° North  Level FlightAware Approximate
03:27PM 18.8100 -88.7702 339° North  Level FlightAware Approximate
03:28PM 18.9153 -88.8132 339° North  Level FlightAware Approximate
03:29PM 19.0206 -88.8563 339° North  Level FlightAware Approximate
03:30PM 19.1259 -88.8995 339° North  Level FlightAware Approximate
03:31PM 19.2312 -88.9427 339° North  Level FlightAware Approximate
03:32PM 19.3364 -88.9860 339° North  Level FlightAware Approximate
03:33PM 19.4417 -89.0293 339° North  Level FlightAware Approximate
03:34PM 19.5469 -89.0727 339° North  Level FlightAware Approximate
03:35PM 19.6522 -89.1161 339° North  Level FlightAware Approximate
03:36PM 19.7574 -89.1596 339° North  Level FlightAware Approximate
03:37PM 19.8626 -89.2032 339° North  Level FlightAware Approximate
03:38PM 19.9678 -89.2468 339° North  Level FlightAware Approximate
03:39PM 20.0730 -89.2905 339° North  Level FlightAware Approximate
03:40PM 20.1782 -89.3342 339° North  Level FlightAware Approximate
03:41PM 20.2834 -89.3780 339° North  Level FlightAware Approximate
03:42PM 20.3886 -89.4218 339° North  Level FlightAware Approximate
03:43PM 20.4937 -89.4657 339° North  Level FlightAware Approximate
03:44PM 20.5989 -89.5097 339° North  Level FlightAware Approximate
03:45PM 20.7040 -89.5537 339° North  Level FlightAware Approximate
03:46PM 20.8091 -89.5978 339° North  Level FlightAware Approximate
03:47PM 20.9142 -89.6420 339° North  Level FlightAware Approximate
03:48PM 21.0182 -89.6890 337° Northwest  Level FlightAware Approximate
03:49PM 21.1220 -89.7368 337° Northwest  Level FlightAware Approximate
03:50PM 21.2257 -89.7846 337° Northwest  Level FlightAware Approximate
03:51PM 21.3294 -89.8325 337° Northwest  Level FlightAware Approximate
03:52PM 21.4331 -89.8804 337° Northwest  Level FlightAware Approximate
03:53PM 21.5368 -89.9285 337° Northwest  Level FlightAware Approximate
03:54PM 21.6405 -89.9766 337° Northwest  Level FlightAware Approximate
03:55PM 21.7441 -90.0250 337° Northwest  Level FlightAware Approximate
03:56PM 21.8477 -90.0734 337° Northwest  Level FlightAware Approximate
03:57PM 21.9512 -90.1219 337° Northwest  Level FlightAware Approximate
03:58PM 22.0548 -90.1705 337° Northwest  Level FlightAware Approximate
03:59PM 22.1583 -90.2191 336° Northwest  Level FlightAware Approximate
04:00PM 22.2618 -90.2678 336° Northwest  Level FlightAware Approximate
04:01PM 22.3653 -90.3166 336° Northwest  Level FlightAware Approximate
04:02PM 22.4688 -90.3654 336° Northwest  Level FlightAware Approximate
04:03PM 22.5723 -90.4144 336° Northwest  Level FlightAware Approximate
04:04PM 22.6758 -90.4634 336° Northwest  Level FlightAware Approximate
04:05PM 22.7792 -90.5124 336° Northwest  Level FlightAware Approximate
04:06PM 22.8826 -90.5616 336° Northwest  Level FlightAware Approximate
04:07PM 22.9861 -90.6108 336° Northwest  Level FlightAware Approximate
04:08PM 23.0896 -90.6599 337° Northwest  Level FlightAware Approximate
04:09PM 23.1931 -90.7088 337° Northwest  Level FlightAware Approximate
04:10PM 23.2967 -90.7578 337° Northwest  Level FlightAware Approximate
04:11PM 23.4002 -90.8068 336° Northwest  Level FlightAware Approximate
04:12PM 23.5037 -90.8560 336° Northwest  Level FlightAware Approximate
04:13PM 23.6073 -90.9052 336° Northwest  Level FlightAware Approximate
04:14PM 23.7107 -90.9545 336° Northwest  Level FlightAware Approximate
04:15PM 23.8142 -91.0039 336° Northwest  Level FlightAware Approximate
04:16PM 23.9177 -91.0533 336° Northwest  Level FlightAware Approximate
04:17PM 24.0211 -91.1029 336° Northwest  Level FlightAware Approximate
04:18PM 24.1246 -91.1525 336° Northwest  Level FlightAware Approximate
04:19PM 24.2280 -91.2022 336° Northwest  Level FlightAware Approximate
04:20PM 24.3314 -91.2520 336° Northwest  Level FlightAware Approximate
04:21PM 24.4347 -91.3018 336° Northwest  Level FlightAware Approximate
04:22PM 24.5359 -91.3565 330° Northwest  Level FlightAware Approximate
04:23PM 24.6333 -91.4193 330° Northwest  Level FlightAware Approximate
04:24PM 24.7307 -91.4822 330° Northwest  Level FlightAware Approximate
04:25PM 24.8281 -91.5452 330° Northwest  Level FlightAware Approximate
04:26PM 24.9254 -91.6083 330° Northwest  Level FlightAware Approximate
04:27PM 25.0221 -91.6712 330° Northwest  Level FlightAware Approximate
04:28PM 25.1189 -91.7341 329° Northwest  Level FlightAware Approximate
04:29PM 25.2156 -91.7972 329° Northwest  Level FlightAware Approximate
04:30PM 25.3123 -91.8603 329° Northwest  Level FlightAware Approximate
04:31PM 25.4089 -91.9236 329° Northwest  Level FlightAware Approximate
04:32PM 25.5055 -91.9869 330° Northwest  Level FlightAware Approximate
04:33PM 25.6025 -92.0498 330° Northwest  Level FlightAware Approximate
04:34PM 25.6994 -92.1127 330° Northwest  Level FlightAware Approximate
04:35PM 25.7962 -92.1758 330° Northwest  Level FlightAware Approximate
04:35PM 26.5753 -92.7028 330° Northwest 441 507 38,000  Level Houston Center
04:36PM 25.8930 -92.2390 330° Northwest  Level FlightAware Approximate
04:36PM 26.6814 -92.7683 331° Northwest 439 505 38,000  Level Houston Center
04:37PM 25.9898 -92.3022 330° Northwest  Level FlightAware Approximate
04:37PM 26.7878 -92.8350 331° Northwest 438 504 38,000  Level Houston Center
04:38PM 26.0866 -92.3656 330° Northwest  Level FlightAware Approximate
04:38PM 26.9022 -92.8914 336° Northwest 445 512 38,000  Level Houston Center
04:39PM 26.1834 -92.4290 330° Northwest  Level FlightAware Approximate
04:39PM 27.0431 -92.9397 343° North 449 517 38,000  Level Houston Center
04:40PM 26.2801 -92.4926 329° Northwest  Level FlightAware Approximate
04:41PM 26.3770 -92.5560 330° Northwest  Level FlightAware Approximate
04:41PM 27.1614 -92.9858 341° North 450 518 38,000  Level Houston Center
04:42PM 27.2803 -93.0353 340° North 448 516 38,000  Level Houston Center
04:43PM 27.3969 -93.0828 340° North 447 514 38,000  Level Houston Center
04:44PM 27.5139 -93.1317 340° North 447 514 38,000 -60 Level Houston Center
04:45PM 27.6292 -93.1781 340° North 443 510 37,900  Descending Houston Center
04:46PM 27.7650 -93.2308 341° North 440 506 38,000  Climbing Houston Center
04:47PM 27.8792 -93.2742 341° North 435 501 38,000  Level Houston Center
04:48PM 27.9953 -93.3153 343° North 435 501 38,000  Level Houston Center
04:49PM 28.1075 -93.3606 340° North 431 496 38,000  Level Houston Center
04:50PM 28.2217 -93.4028 342° North 432 497 38,000  Level Houston Center
04:51PM 28.3575 -93.4531 342° North 428 493 38,000  Level Houston Center
04:52PM 28.4717 -93.4950 342° North 432 497 38,000  Level Houston Center
04:53PM 28.5847 -93.5392 341° North 430 495 38,000  Level Houston Center
04:54PM 28.7006 -93.5814 342° North 436 502 38,000 -960 Level Houston Center
04:55PM 28.8117 -93.6228 342° North 424 488 36,100 -2,400 Descending Houston Center
04:56PM 28.9314 -93.6683 342° North 436 502 33,000 -2,820 Descending Houston Center
04:57PM 29.0539 -93.7144 342° North 461 531 30,300 -3,960 Descending Houston Center
04:58PM 29.1708 -93.8131 324° Northwest 448 516 24,900 -3,780 Descending Houston Center
04:59PM 29.2389 -93.9144 308° West 430 495 22,500 -2,280 Descending Houston Center
05:00PM 29.3075 -94.0153 308° West 407 468 20,300 -2,040 Descending Houston Center
05:01PM 29.3722 -94.1083 309° West 381 438 18,300 -2,280 Descending Houston Center
05:02PM 29.4239 -94.1867 307° West 355 409 16,500 -2,220 Descending Houston Center
05:03PM 29.4828 -94.2703 309° West 347 399 14,600 -1,860 Descending Houston Center
05:04PM 29.5403 -94.3636 305° West 334 384 12,800 -1,500 Descending Houston Center
05:05PM 29.5789 -94.4547 296° West 302 348 11,600 -1,320 Descending Houston Center
05:06PM 29.6164 -94.5364 298° West 295 339 10,200 -1,440 Descending Houston Center
05:07PM 29.6514 -94.6161 297° West 278 320 8,700 -1,620 Descending Houston Center
05:08PM 29.7106 -94.6833 315° West 272 313 7,000 -1,620 Descending Houston Center
05:09PM 29.7647 -94.7461 315° West 278 320 5,500 -1,440 Descending Houston Center
05:10PM 29.8172 -94.8094 314° West 272 313 4,100 -1,020 Descending Houston Center
05:11PM 29.8372 -94.8331 314° West 271 312 4,000 -240 Descending Houston Center
05:11PM 29.8739 -94.8744 316° Northwest 267 307 3,900 -600 Descending Houston Center
05:12PM 29.8867 -94.8956 305° West 270 311 3,400 -1,500 Descending Houston Center
05:12PM 29.9019 -94.9506 288° West 272 313 2,400 -1,380 Descending Houston Center
05:13PM 29.9150 -94.9928 290° West 270 311 2,000 -420 Descending Houston Center
05:13PM 29.9244 -95.0322 285° West 265 305 2,000  Level Houston Center
05:14PM 29.9375 -95.0694 292° West 264 304 2,000  Level Houston Center